This is the latest recevied weather packets stored in our database for station/object ON4CDJ-13. If no packets are shown the sender has not sent any weather packets the latest 10 day(s).
| Time | Temp. | Humidity | Pressure | Rain* | Wind** | Luminosity | Snow |
|---|---|---|---|---|---|---|---|
| 1777892207 | 18.89° C | 70% | 1014.7 hPa | 0 mm | - | 390 W/m² | - |
| 1777891543 | 18.33° C | 72% | 1014.5 hPa | 0 mm | - | 418 W/m² | - |
| 1777888573 | 18.33° C | 73% | 1014.6 hPa | 0 mm | - | 425 W/m² | - |
| 1777887953 | 18.33° C | 72% | 1014.7 hPa | 0 mm | - | 413 W/m² | - |
| 1777887333 | 17.22° C | 74% | 1014.7 hPa | 0 mm | - | 327 W/m² | - |
| 1777884917 | 16.11° C | 80% | 1014.7 hPa | 0 mm | - | 250 W/m² | - |
| 1777883748 | 16.11° C | 81% | 1014.5 hPa | 0 mm | - | 379 W/m² | - |
| 1777882572 | 15.56° C | 84% | 1014.5 hPa | 0 mm | - | 238 W/m² | - |
| 1777879548 | 13.89° C | 95% | 1014.2 hPa | 0 mm | - | 158 W/m² | - |
| 1777876519 | 13.89° C | 96% | 1013.8 hPa | 0 mm | - | 89 W/m² | - |
| 1777875962 | 13.89° C | 97% | 1013.6 hPa | 0 mm | - | 154 W/m² | - |
| 1777868731 | 13.33° C | 97% | 1013.1 hPa | 0 mm | - | 4 W/m² | - |
| 1777866947 | 13.33° C | 97% | 1012.9 hPa | 0 mm | - | 0 W/m² | - |
| 1777865759 | 13.33° C | 97% | 1012.9 hPa | 0 mm | - | 0 W/m² | - |
| 1777859749 | 12.22° C | 96% | 1012.8 hPa | 0 mm | - | 0 W/m² | - |
| 1777859133 | 12.22° C | 97% | 1012.7 hPa | 0 mm | - | 0 W/m² | - |
| 1777856155 | 11.67° C | 96% | 1012.6 hPa | 0 mm | - | 0 W/m² | - |
| 1777848367 | 12.22° C | 96% | 1012.7 hPa | 0 mm | - | 0 W/m² | - |
| 1777844163 | 13.33° C | 95% | 1012.7 hPa | 0 mm | - | 0 W/m² | - |
| 1777840568 | 13.33° C | 95% | 1012.5 hPa | 0 mm | - | 0 W/m² | - |
| 1777837530 | 13.89° C | 94% | 1012.4 hPa | 0 mm | - | 0 W/m² | - |
| 1777834544 | 14.44° C | 93% | 1012.1 hPa | 0 mm | - | 6 W/m² | - |
| 1777829158 | 14.44° C | 92% | 1011.7 hPa | 0 mm | - | 48 W/m² | - |
| 1777827925 | 13.89° C | 92% | 1011.6 hPa | 0.51 mm | - | 57 W/m² | - |
| 1777824957 | 13.89° C | 91% | 1012 hPa | 5.59 mm | - | 26 W/m² | - |
* Rain latest hour (hover to see other rain measurements)
** Current wind speed in m/s (hover to see current wind gust speed)